Time;durP1;ratioP1;P1;durP2;ratioP2;P2;SDS_P1;SDS_P2;PMS_P1;PMS_P2;Temp;Humidity;BMP_temperature;BMP_pressure;BME280_temperature;BME280_humidity;BME280_pressure;Samples;Min_cycle;Max_cycle;Signal;HPM_P1;HPM_P2
2023/05/15 00:01:04;;;;;;;8.50;4.07;;;12.40;99.90;;;;;;5117372;28;20027;-73
2023/05/15 00:03:30;;;;;;;12.98;4.30;;;12.30;99.90;;;;;;5116463;28;20091;-73
2023/05/15 00:05:55;;;;;;;5.40;3.85;;;12.40;99.90;;;;;;5116652;28;20023;-73
2023/05/15 00:08:21;;;;;;;6.38;3.60;;;12.40;99.90;;;;;;5116658;28;20024;-73
2023/05/15 00:10:48;;;;;;;5.20;3.70;;;12.50;99.90;;;;;;5099665;28;20067;-73
2023/05/15 00:13:17;;;;;;;5.32;3.78;;;12.40;99.90;;;;;;5126764;22;20039;-70
2023/05/15 00:15:43;;;;;;;4.50;3.58;;;12.40;99.90;;;;;;5097046;28;20039;-71
2023/05/15 00:18:08;;;;;;;5.50;3.70;;;12.30;99.90;;;;;;5096212;28;20024;-71
2023/05/15 00:20:34;;;;;;;6.32;3.78;;;12.20;99.90;;;;;;5096356;28;20028;-70
2023/05/15 00:23:00;;;;;;;4.53;3.40;;;12.20;99.90;;;;;;5096385;28;20024;-71
2023/05/15 00:25:25;;;;;;;16.48;4.05;;;12.20;99.90;;;;;;5097006;28;20051;-71
2023/05/15 00:27:51;;;;;;;6.00;4.20;;;11.90;99.90;;;;;;5096069;28;20024;-71
2023/05/15 00:30:16;;;;;;;5.20;3.88;;;11.80;99.90;;;;;;5095888;28;20028;-71
2023/05/15 00:32:42;;;;;;;8.95;3.88;;;11.80;99.90;;;;;;5097066;28;20028;-71
2023/05/15 00:35:08;;;;;;;13.75;4.47;;;11.80;99.90;;;;;;5095994;28;20028;-71
2023/05/15 00:37:33;;;;;;;7.40;4.65;;;11.80;99.90;;;;;;5096784;28;20016;-71
2023/05/15 00:39:59;;;;;;;11.85;4.75;;;11.80;99.90;;;;;;5096346;28;20020;-71
2023/05/15 00:42:25;;;;;;;9.20;4.50;;;11.80;99.90;;;;;;5096077;28;20020;-71
2023/05/15 00:44:52;;;;;;;9.30;4.50;;;11.80;99.90;;;;;;5095917;28;20020;-71
2023/05/15 00:47:19;;;;;;;6.45;4.38;;;11.80;99.90;;;;;;5096220;28;20028;-71
2023/05/15 00:49:48;;;;;;;9.10;4.35;;;11.90;99.90;;;;;;5096205;28;21894;-71
2023/05/15 00:52:14;;;;;;;8.32;4.43;;;11.80;99.90;;;;;;5096542;28;20024;-71
2023/05/15 00:54:39;;;;;;;13.40;4.30;;;11.70;99.90;;;;;;5096584;28;20024;-71
2023/05/15 00:57:08;;;;;;;7.05;4.80;;;11.60;99.90;;;;;;5098304;28;20016;-70
2023/05/15 00:59:35;;;;;;;9.65;4.78;;;11.50;99.90;;;;;;5099486;28;20027;-71
2023/05/15 01:02:00;;;;;;;10.18;4.88;;;11.50;99.90;;;;;;5099780;28;20087;-71
2023/05/15 01:04:26;;;;;;;18.95;5.00;;;11.70;99.90;;;;;;5100463;28;20105;-71
2023/05/15 01:06:54;;;;;;;13.10;4.93;;;11.60;99.90;;;;;;5100225;28;20158;-70
2023/05/15 01:09:22;;;;;;;11.90;4.68;;;11.60;99.90;;;;;;5100221;28;20024;-71
2023/05/15 01:11:50;;;;;;;10.48;4.35;;;11.60;99.90;;;;;;5099175;28;20024;-71
2023/05/15 01:14:15;;;;;;;7.05;4.63;;;11.50;99.90;;;;;;5101101;28;20032;-70
2023/05/15 01:16:41;;;;;;;9.52;4.78;;;11.60;99.90;;;;;;5099125;28;20074;-71
2023/05/15 01:19:06;;;;;;;7.25;4.75;;;11.70;99.90;;;;;;5100262;28;20027;-71
2023/05/15 01:21:35;;;;;;;4.75;3.45;;;11.60;99.90;;;;;;5100186;28;20078;-71
2023/05/15 01:24:31;;;;;;;4.45;3.90;;;11.70;99.90;;;;;;5099967;28;20032;-71
2023/05/15 01:27:26;;;;;;;7.43;4.20;;;11.70;99.90;;;;;;5099104;28;20089;-71
2023/05/15 01:30:17;;;;;;;14.38;4.20;;;11.70;99.90;;;;;;5096603;28;20032;-71
2023/05/15 01:32:51;;;;;;;11.25;3.85;;;11.60;99.90;;;;;;5099736;28;20104;-71
2023/05/15 01:35:25;;;;;;;6.30;3.33;;;11.60;99.90;;;;;;5098982;28;20032;-71
2023/05/15 01:38:07;;;;;;;13.32;3.67;;;11.60;99.90;;;;;;5100195;28;20035;-71
2023/05/15 01:40:33;;;;;;;19.17;3.72;;;11.50;99.90;;;;;;5099544;28;20036;-71
2023/05/15 01:43:06;;;;;;;6.15;3.40;;;11.50;99.90;;;;;;5099506;28;20081;-70
2023/05/15 01:45:32;;;;;;;7.65;3.83;;;11.50;99.90;;;;;;5098631;28;20024;-71
2023/05/15 01:48:00;;;;;;;9.43;2.78;;;11.60;99.90;;;;;;5098663;28;20031;-70
2023/05/15 01:50:29;;;;;;;37.78;4.45;;;11.50;99.90;;;;;;5099581;28;20031;-71
2023/05/15 01:52:57;;;;;;;20.27;3.83;;;11.40;99.90;;;;;;5098465;28;20059;-71
2023/05/15 01:55:25;;;;;;;13.77;3.67;;;11.40;99.90;;;;;;5099436;28;20111;-71
2023/05/15 01:57:51;;;;;;;10.82;3.40;;;11.30;99.90;;;;;;5098419;28;20027;-71
2023/05/15 02:00:18;;;;;;;18.83;4.43;;;11.30;99.90;;;;;;5098331;28;20028;-71
2023/05/15 02:02:45;;;;;;;10.95;3.17;;;11.40;99.90;;;;;;5099012;28;20074;-71
2023/05/15 02:05:12;;;;;;;9.75;3.10;;;11.30;99.90;;;;;;5099129;28;20031;-71
2023/05/15 02:07:40;;;;;;;3.00;2.47;;;11.40;99.90;;;;;;5099393;28;20054;-71
2023/05/15 02:10:07;;;;;;;30.05;3.88;;;11.40;99.90;;;;;;5098069;28;20024;-71
2023/05/15 02:12:34;;;;;;;16.02;3.53;;;11.40;99.90;;;;;;5098280;28;20024;-71
2023/05/15 02:15:02;;;;;;;9.38;2.30;;;11.40;99.90;;;;;;5098125;28;20048;-71
2023/05/15 02:17:28;;;;;;;24.88;3.65;;;11.40;99.90;;;;;;5098800;28;20025;-71
2023/05/15 02:19:54;;;;;;;17.73;3.60;;;11.30;99.90;;;;;;5098371;28;20031;-71
2023/05/15 02:22:20;;;;;;;8.50;2.90;;;11.30;99.90;;;;;;5098577;28;20024;-71
2023/05/15 02:24:45;;;;;;;7.15;2.63;;;11.20;99.90;;;;;;5098430;28;20027;-71
2023/05/15 02:27:25;;;;;;;10.65;2.75;;;11.20;99.90;;;;;;5097939;28;20070;-71
2023/05/15 02:30:07;;;;;;;3.85;2.50;;;11.30;99.90;;;;;;5097709;28;20028;-71
2023/05/15 02:32:36;;;;;;;7.05;2.70;;;11.20;99.90;;;;;;5097835;28;20028;-71
2023/05/15 02:35:18;;;;;;;6.40;2.90;;;11.20;99.90;;;;;;5097627;28;20092;-71
2023/05/15 02:37:51;;;;;;;37.75;3.72;;;11.10;99.90;;;;;;5098648;28;20076;-71
2023/05/15 02:40:19;;;;;;;17.80;3.67;;;11.00;99.90;;;;;;5097733;28;20073;-71
2023/05/15 02:42:46;;;;;;;16.65;3.42;;;10.90;99.90;;;;;;5098283;28;20036;-71
2023/05/15 02:45:12;;;;;;;14.95;3.47;;;10.90;99.90;;;;;;5097591;28;20024;-71
2023/05/15 02:47:39;;;;;;;14.07;3.30;;;10.90;99.90;;;;;;5098237;28;20035;-71
2023/05/15 02:50:05;;;;;;;45.17;4.53;;;10.70;99.90;;;;;;5097618;28;20028;-71
2023/05/15 02:52:33;;;;;;;25.42;4.10;;;10.70;99.90;;;;;;5097102;28;20020;-71
2023/05/15 02:54:59;;;;;;;24.45;4.18;;;10.80;99.90;;;;;;5097177;28;20164;-71
2023/05/15 02:57:25;;;;;;;15.25;3.75;;;10.80;99.90;;;;;;5098431;28;20020;-71
2023/05/15 02:59:55;;;;;;;8.15;2.72;;;10.80;99.90;;;;;;5097073;28;20028;-71
2023/05/15 03:02:20;;;;;;;4.57;2.80;;;10.80;99.90;;;;;;5097823;28;20030;-71
2023/05/15 03:04:46;;;;;;;4.90;2.65;;;10.80;99.90;;;;;;5097080;28;20103;-71
2023/05/15 03:07:13;;;;;;;2.63;2.42;;;10.80;99.90;;;;;;5096994;28;20028;-71
2023/05/15 03:09:39;;;;;;;5.10;2.53;;;10.80;99.90;;;;;;5097764;28;20050;-71
2023/05/15 03:12:05;;;;;;;2.38;2.17;;;10.80;99.90;;;;;;5096767;28;20028;-71
2023/05/15 03:14:30;;;;;;;19.40;3.15;;;10.70;99.90;;;;;;5097802;28;20036;-71
2023/05/15 03:16:56;;;;;;;5.13;2.50;;;10.70;99.90;;;;;;5097251;28;20024;-71
2023/05/15 03:19:21;;;;;;;4.43;2.88;;;10.70;99.90;;;;;;5096331;28;20047;-71
2023/05/15 03:21:47;;;;;;;9.38;3.00;;;10.80;99.90;;;;;;5096845;28;20020;-71
2023/05/15 03:24:12;;;;;;;14.45;3.60;;;10.70;99.90;;;;;;5096619;28;20020;-71
2023/05/15 03:26:39;;;;;;;12.93;3.03;;;10.60;99.90;;;;;;5096707;28;20028;-71
2023/05/15 03:29:04;;;;;;;7.68;2.92;;;10.60;99.90;;;;;;5096684;28;20028;-71
2023/05/15 03:31:30;;;;;;;7.32;2.65;;;10.70;99.90;;;;;;5096549;28;20031;-71
2023/05/15 03:33:56;;;;;;;14.88;3.33;;;10.70;99.90;;;;;;5096854;28;20117;-71
2023/05/15 03:36:22;;;;;;;5.47;3.00;;;10.80;99.90;;;;;;5097476;28;20102;-71
2023/05/15 03:38:47;;;;;;;8.18;2.83;;;10.60;99.90;;;;;;5097309;28;20115;-71
2023/05/15 03:41:13;;;;;;;13.52;2.75;;;10.60;99.90;;;;;;5097282;28;20022;-71
2023/05/15 03:43:38;;;;;;;5.25;2.28;;;10.60;99.90;;;;;;5097559;28;20028;-70
2023/05/15 03:46:04;;;;;;;9.73;2.70;;;10.60;99.90;;;;;;5096469;28;20023;-70
2023/05/15 03:48:30;;;;;;;4.47;2.17;;;10.60;99.90;;;;;;5096392;28;20024;-70
2023/05/15 03:50:56;;;;;;;10.55;2.42;;;10.70;99.90;;;;;;5096316;28;20026;-70
2023/05/15 03:53:22;;;;;;;6.63;1.90;;;10.80;99.90;;;;;;5097200;28;20016;-70
2023/05/15 03:55:47;;;;;;;13.73;2.47;;;10.80;99.90;;;;;;5097520;28;20023;-70
2023/05/15 03:58:13;;;;;;;11.68;2.38;;;10.90;99.90;;;;;;5096526;28;20012;-70
2023/05/15 04:00:38;;;;;;;2.75;2.28;;;10.90;99.90;;;;;;5097287;28;20032;-70
2023/05/15 04:03:04;;;;;;;6.38;2.53;;;10.80;99.90;;;;;;5096148;28;20035;-70
2023/05/15 04:05:29;;;;;;;7.15;2.25;;;10.80;99.90;;;;;;5096274;28;20024;-70
2023/05/15 04:07:55;;;;;;;2.13;1.92;;;10.70;99.90;;;;;;5097149;28;20070;-70
2023/05/15 04:10:20;;;;;;;4.85;2.33;;;10.70;99.90;;;;;;5096204;28;20032;-70
2023/05/15 04:12:46;;;;;;;8.05;2.97;;;10.50;99.90;;;;;;5097078;28;20047;-70
2023/05/15 04:15:16;;;;;;;3.30;2.80;;;10.50;99.90;;;;;;5096176;28;20021;-70
2023/05/15 04:17:46;;;;;;;4.95;2.47;;;10.50;99.90;;;;;;5096144;28;20016;-70
2023/05/15 04:20:14;;;;;;;2.85;2.30;;;10.50;99.90;;;;;;5096146;28;20020;-70
2023/05/15 04:22:40;;;;;;;5.88;2.40;;;10.50;99.90;;;;;;5096834;28;20016;-70
2023/05/15 04:25:06;;;;;;;3.53;2.42;;;10.40;99.90;;;;;;5096119;28;20024;-70
2023/05/15 04:27:32;;;;;;;2.65;2.45;;;10.50;99.90;;;;;;5096261;28;20062;-70
2023/05/15 04:29:59;;;;;;;2.97;2.53;;;10.60;99.90;;;;;;5095844;28;20048;-70
2023/05/15 04:32:24;;;;;;;4.32;2.17;;;10.60;99.90;;;;;;5099636;28;20024;-70
2023/05/15 04:34:50;;;;;;;4.03;2.20;;;10.70;99.90;;;;;;5099895;28;20023;-71
2023/05/15 04:37:15;;;;;;;3.13;2.45;;;10.70;99.90;;;;;;5101036;28;20020;-70
2023/05/15 04:39:41;;;;;;;5.20;2.42;;;10.70;99.90;;;;;;5100680;28;20016;-70
2023/05/15 04:42:06;;;;;;;16.92;2.60;;;10.70;99.90;;;;;;5100212;28;20024;-70
2023/05/15 04:44:32;;;;;;;7.20;2.42;;;10.60;99.90;;;;;;5099885;28;20020;-74
2023/05/15 04:46:58;;;;;;;4.60;2.40;;;10.50;99.90;;;;;;5099816;28;20026;-74
2023/05/15 04:49:23;;;;;;;4.88;2.70;;;10.50;99.90;;;;;;5100486;28;20083;-73
2023/05/15 04:51:49;;;;;;;3.40;2.15;;;10.70;99.90;;;;;;5099785;28;20020;-73
2023/05/15 04:54:14;;;;;;;2.28;1.90;;;10.70;99.90;;;;;;5100484;28;20012;-74
2023/05/15 04:56:40;;;;;;;3.72;2.35;;;10.70;99.90;;;;;;5099689;28;20070;-74
2023/05/15 04:59:05;;;;;;;1.98;1.77;;;10.70;99.90;;;;;;5099442;28;20028;-74
2023/05/15 05:01:31;;;;;;;2.45;2.08;;;10.70;99.90;;;;;;5099387;28;20056;-74
2023/05/15 05:03:56;;;;;;;2.97;2.42;;;10.60;99.90;;;;;;5099322;28;20077;-73
2023/05/15 05:06:23;;;;;;;5.70;2.35;;;10.60;99.90;;;;;;5099324;28;20032;-73
2023/05/15 05:08:48;;;;;;;4.90;3.05;;;10.70;99.90;;;;;;5099873;28;20020;-74
2023/05/15 05:11:14;;;;;;;4.28;2.70;;;10.80;99.90;;;;;;5100121;28;20032;-74
2023/05/15 05:13:40;;;;;;;4.15;2.78;;;10.80;99.90;;;;;;5099876;28;20035;-74
2023/05/15 05:16:06;;;;;;;8.98;3.00;;;10.90;99.90;;;;;;5100002;28;20016;-74
2023/05/15 05:18:32;;;;;;;5.93;3.15;;;10.90;99.90;;;;;;5099449;28;20077;-74
2023/05/15 05:21:02;;;;;;;4.53;2.97;;;10.70;99.90;;;;;;5098987;28;20175;-74
2023/05/15 05:23:28;;;;;;;5.55;3.13;;;10.70;99.90;;;;;;5099169;28;20024;-74
2023/05/15 05:25:54;;;;;;;7.45;3.70;;;10.70;99.90;;;;;;5099689;28;20051;-74
2023/05/15 05:28:20;;;;;;;8.30;3.20;;;10.60;99.90;;;;;;5098841;28;20024;-74
2023/05/15 05:30:46;;;;;;;4.07;3.08;;;10.70;99.90;;;;;;5099630;28;20057;-74
2023/05/15 05:33:12;;;;;;;3.72;3.30;;;10.80;99.90;;;;;;5099054;28;20030;-74
2023/05/15 05:35:38;;;;;;;4.30;3.13;;;10.80;99.90;;;;;;5098781;28;20020;-70
2023/05/15 05:38:03;;;;;;;4.93;3.75;;;10.80;99.90;;;;;;5098777;28;20089;-70
2023/05/15 05:40:29;;;;;;;5.85;3.67;;;10.90;99.90;;;;;;5098785;28;20049;-70
2023/05/15 05:42:58;;;;;;;4.15;3.50;;;10.90;99.90;;;;;;5099092;28;20052;-70
2023/05/15 05:45:24;;;;;;;4.88;3.97;;;10.90;99.90;;;;;;5098570;28;20020;-70
2023/05/15 05:47:49;;;;;;;6.47;4.03;;;11.00;99.90;;;;;;5099826;28;20039;-70
2023/05/15 05:50:15;;;;;;;6.78;3.78;;;11.10;99.90;;;;;;5098501;28;20021;-70
2023/05/15 05:52:40;;;;;;;4.90;3.92;;;11.20;99.90;;;;;;5098495;28;20028;-70
2023/05/15 05:55:06;;;;;;;4.78;3.92;;;11.20;99.90;;;;;;5099231;28;20027;-70
2023/05/15 05:57:32;;;;;;;4.55;3.67;;;11.20;99.90;;;;;;5099534;28;20119;-70
2023/05/15 05:59:57;;;;;;;7.28;4.40;;;11.20;99.90;;;;;;5098664;28;20028;-70
2023/05/15 06:02:23;;;;;;;7.05;4.18;;;11.20;99.90;;;;;;5098283;28;20028;-70
2023/05/15 06:04:49;;;;;;;7.65;4.30;;;11.30;99.90;;;;;;5098179;28;20031;-70
2023/05/15 06:07:14;;;;;;;7.43;4.28;;;11.50;99.90;;;;;;5099383;28;20035;-70
2023/05/15 06:09:40;;;;;;;6.10;4.53;;;11.80;99.90;;;;;;5099015;28;20027;-70
2023/05/15 06:12:07;;;;;;;9.00;4.35;;;12.00;99.90;;;;;;5098018;28;20035;-70
2023/05/15 06:14:32;;;;;;;7.50;4.50;;;12.20;99.90;;;;;;5099084;28;20024;-73
2023/05/15 06:16:59;;;;;;;6.07;4.22;;;12.30;99.90;;;;;;5098024;28;20016;-73
2023/05/15 06:19:25;;;;;;;9.38;4.57;;;12.40;99.90;;;;;;5097938;28;20077;-74
2023/05/15 06:21:50;;;;;;;5.45;4.72;;;12.40;99.90;;;;;;5098171;28;20024;-73
2023/05/15 06:24:16;;;;;;;6.18;4.15;;;12.40;99.90;;;;;;5098911;28;20024;-73
2023/05/15 06:26:41;;;;;;;5.78;4.32;;;12.50;99.90;;;;;;5098075;28;20020;-73
2023/05/15 06:29:07;;;;;;;8.20;4.82;;;12.50;99.90;;;;;;5097815;28;20016;-72
2023/05/15 06:31:32;;;;;;;7.22;4.60;;;12.50;99.90;;;;;;5097694;28;20046;-73
2023/05/15 06:33:58;;;;;;;6.55;4.28;;;12.60;99.90;;;;;;5098505;28;20035;-73
2023/05/15 06:36:23;;;;;;;5.28;4.38;;;12.70;99.90;;;;;;5097761;28;20016;-72
2023/05/15 06:38:49;;;;;;;9.10;4.80;;;12.70;99.90;;;;;;5098063;28;20114;-73
2023/05/15 06:41:14;;;;;;;9.98;4.88;;;12.80;99.90;;;;;;5097499;28;20031;-74
2023/05/15 06:43:40;;;;;;;7.03;4.95;;;12.90;99.90;;;;;;5097426;28;20020;-73
2023/05/15 06:46:05;;;;;;;9.00;4.88;;;13.00;99.90;;;;;;5097469;28;20035;-74
2023/05/15 06:48:31;;;;;;;6.38;4.15;;;13.10;99.90;;;;;;5097530;28;20028;-73
2023/05/15 06:50:57;;;;;;;6.63;4.60;;;13.20;99.90;;;;;;5098134;28;20024;-75
2023/05/15 06:53:22;;;;;;;7.97;4.53;;;13.20;99.90;;;;;;5096731;28;20024;-72
2023/05/15 06:55:48;;;;;;;4.82;3.85;;;13.20;99.90;;;;;;5096904;28;20032;-73
2023/05/15 06:58:13;;;;;;;7.68;4.22;;;13.20;99.90;;;;;;5097095;28;20020;-72
2023/05/15 07:00:39;;;;;;;11.50;4.30;;;13.20;99.90;;;;;;5097957;28;20061;-73
2023/05/15 07:03:05;;;;;;;5.45;4.15;;;13.30;99.90;;;;;;5097168;28;20028;-73
2023/05/15 07:05:30;;;;;;;8.25;4.43;;;13.50;99.90;;;;;;5097177;28;20020;-74
2023/05/15 07:07:56;;;;;;;5.95;4.00;;;13.60;99.90;;;;;;5097387;28;20059;-74
2023/05/15 07:10:21;;;;;;;4.55;3.60;;;13.70;99.90;;;;;;5096939;28;20028;-72
2023/05/15 07:12:47;;;;;;;6.97;3.90;;;13.70;99.90;;;;;;5097473;28;20032;-74
2023/05/15 07:15:12;;;;;;;5.20;3.75;;;13.80;99.90;;;;;;5096898;28;20092;-74
2023/05/15 07:17:38;;;;;;;3.88;3.22;;;13.90;99.90;;;;;;5097919;28;20053;-74
2023/05/15 07:20:04;;;;;;;5.03;3.70;;;14.00;99.90;;;;;;5097223;28;20068;-74
2023/05/15 07:22:30;;;;;;;7.47;3.90;;;14.10;99.90;;;;;;5096705;28;20035;-74
2023/05/15 07:24:55;;;;;;;5.00;3.42;;;14.20;99.90;;;;;;5096833;28;20027;-74
2023/05/15 07:27:21;;;;;;;5.47;3.85;;;14.20;99.90;;;;;;5098116;28;20034;-74
2023/05/15 07:29:47;;;;;;;7.80;3.80;;;14.20;99.90;;;;;;5096505;28;20035;-74
2023/05/15 07:32:12;;;;;;;4.55;3.60;;;14.40;99.90;;;;;;5097591;28;20028;-74
2023/05/15 07:34:38;;;;;;;4.68;3.47;;;14.40;99.90;;;;;;5097701;28;20017;-74
2023/05/15 07:37:03;;;;;;;8.60;3.47;;;14.50;99.90;;;;;;5096591;28;20016;-74
2023/05/15 07:39:29;;;;;;;5.97;3.67;;;14.60;99.90;;;;;;5096807;28;20024;-72
2023/05/15 07:41:55;;;;;;;4.75;3.78;;;14.70;99.90;;;;;;5096729;28;20020;-72
2023/05/15 07:44:20;;;;;;;5.53;3.38;;;14.80;99.90;;;;;;5096951;28;20044;-74
2023/05/15 07:46:46;;;;;;;5.65;4.22;;;14.80;99.90;;;;;;5096845;28;20020;-74
2023/05/15 07:49:11;;;;;;;4.53;3.20;;;14.90;99.90;;;;;;5096974;28;20025;-74
2023/05/15 07:51:37;;;;;;;5.18;3.30;;;15.10;99.90;;;;;;5096246;28;20073;-74
2023/05/15 07:54:03;;;;;;;4.38;3.50;;;15.20;99.90;;;;;;5096357;28;20066;-73
2023/05/15 07:56:29;;;;;;;4.00;3.22;;;15.30;99.90;;;;;;5096839;28;20024;-74
2023/05/15 07:58:54;;;;;;;5.28;3.63;;;15.40;99.90;;;;;;5096689;28;20023;-72
2023/05/15 08:01:20;;;;;;;4.93;3.50;;;15.40;99.90;;;;;;5097008;28;20020;-74
2023/05/15 08:03:45;;;;;;;8.32;3.75;;;15.50;99.90;;;;;;5096200;28;20025;-74
2023/05/15 08:06:11;;;;;;;6.50;3.67;;;15.60;99.90;;;;;;5098888;28;20053;-74
2023/05/15 08:08:36;;;;;;;3.83;3.33;;;15.70;99.90;;;;;;5100542;28;20032;-74
2023/05/15 08:11:02;;;;;;;5.15;3.55;;;15.80;99.90;;;;;;5101131;28;20016;-74
2023/05/15 08:13:27;;;;;;;6.05;3.70;;;15.90;99.90;;;;;;5101138;28;20036;-74
2023/05/15 08:15:53;;;;;;;5.85;3.10;;;16.00;99.90;;;;;;5100453;28;20020;-74
2023/05/15 08:18:18;;;;;;;4.63;3.28;;;16.10;99.90;;;;;;5100683;28;20024;-74
2023/05/15 08:20:44;;;;;;;6.65;3.63;;;16.10;99.90;;;;;;5100290;28;20054;-74
2023/05/15 08:23:10;;;;;;;3.95;3.35;;;16.30;99.90;;;;;;5100097;28;20024;-72
2023/05/15 08:25:35;;;;;;;4.47;3.17;;;16.40;99.90;;;;;;5100172;28;20074;-72
2023/05/15 08:28:01;;;;;;;4.47;3.33;;;16.50;99.90;;;;;;5101295;28;20031;-72
2023/05/15 08:30:27;;;;;;;4.38;2.70;;;16.50;99.90;;;;;;5100009;28;20096;-72
2023/05/15 08:32:52;;;;;;;4.80;3.10;;;16.60;99.90;;;;;;5101078;28;20024;-72
2023/05/15 08:35:18;;;;;;;4.85;3.35;;;16.70;99.90;;;;;;5100895;28;20022;-72
2023/05/15 08:37:43;;;;;;;4.38;3.30;;;16.80;99.90;;;;;;5099899;28;20020;-72
2023/05/15 08:40:09;;;;;;;6.82;3.13;;;17.00;99.90;;;;;;5100248;28;20024;-72
2023/05/15 08:42:52;;;;;;;5.03;3.60;;;17.10;99.90;;;;;;5099695;28;20030;-72
2023/05/15 08:45:19;;;;;;;4.75;3.60;;;17.10;99.90;;;;;;5100046;28;20024;-74
2023/05/15 08:47:44;;;;;;;4.80;2.97;;;17.20;99.90;;;;;;5100800;28;20065;-74
2023/05/15 08:50:15;;;;;;;5.18;3.22;;;17.30;99.90;;;;;;5099607;28;20028;-74
2023/05/15 08:52:44;;;;;;;5.43;3.50;;;17.30;99.90;;;;;;5100303;28;20016;-74
2023/05/15 08:55:10;;;;;;;6.57;3.38;;;17.40;99.90;;;;;;5100735;28;20026;-74
2023/05/15 08:57:36;;;;;;;6.85;3.33;;;17.60;99.90;;;;;;5100570;28;20020;-73
2023/05/15 09:00:07;;;;;;;5.75;3.75;;;17.70;99.90;;;;;;5099501;28;20027;-74
2023/05/15 09:02:35;;;;;;;5.88;3.80;;;17.80;99.90;;;;;;5100412;28;20107;-74
2023/05/15 09:05:01;;;;;;;5.40;3.95;;;18.00;99.90;;;;;;5100395;28;20107;-74
2023/05/15 09:07:28;;;;;;;6.57;3.53;;;18.20;99.90;;;;;;5099539;28;20096;-74
2023/05/15 09:09:55;;;;;;;6.55;3.90;;;18.20;99.90;;;;;;5100563;28;20020;-74
2023/05/15 09:12:23;;;;;;;4.05;3.58;;;18.30;99.90;;;;;;5100359;28;20039;-74
2023/05/15 09:14:49;;;;;;;8.32;4.47;;;18.40;99.90;;;;;;5099293;28;20027;-74
2023/05/15 09:17:15;;;;;;;5.10;4.07;;;18.60;99.90;;;;;;5099294;28;20020;-74
2023/05/15 09:19:41;;;;;;;4.85;4.05;;;18.80;99.90;;;;;;5100140;28;20057;-74
2023/05/15 09:22:22;;;;;;;7.55;4.28;;;18.90;99.90;;;;;;5099104;28;20024;-74
2023/05/15 09:24:50;;;;;;;5.30;3.88;;;19.00;99.90;;;;;;5099097;28;20025;-74
2023/05/15 09:27:15;;;;;;;7.22;4.13;;;19.10;99.90;;;;;;5099262;28;20020;-74
2023/05/15 09:29:41;;;;;;;4.88;4.38;;;19.20;99.90;;;;;;5099215;28;20024;-74
2023/05/15 09:32:09;;;;;;;8.00;4.75;;;19.20;99.90;;;;;;5098823;28;20119;-73
2023/05/15 09:34:36;;;;;;;5.88;4.32;;;19.10;99.90;;;;;;5099663;28;20051;-74
2023/05/15 09:37:04;;;;;;;6.00;4.85;;;19.00;99.90;;;;;;5098831;28;20024;-74
2023/05/15 09:39:30;;;;;;;7.72;4.60;;;18.90;99.90;;;;;;5099720;28;20027;-74
2023/05/15 09:42:25;;;;;;;9.07;5.28;;;18.90;99.90;;;;;;5098770;28;20119;-74
2023/05/15 09:44:51;;;;;;;10.88;5.57;;;18.70;99.90;;;;;;5061406;28;20070;-73
2023/05/15 09:47:16;;;;;;;6.57;4.82;;;18.70;99.90;;;;;;5061009;28;20029;-74
2023/05/15 09:49:45;;;;;;;9.07;5.63;;;18.60;99.90;;;;;;5077928;28;20097;-74
2023/05/15 09:52:11;;;;;;;7.55;5.47;;;18.60;99.90;;;;;;5077438;28;20024;-74
2023/05/15 09:54:37;;;;;;;9.23;5.10;;;18.60;99.90;;;;;;5078093;28;20032;-74
2023/05/15 09:57:10;;;;;;;10.77;5.38;;;18.40;99.90;;;;;;5077780;28;20095;-74
2023/05/15 09:59:43;;;;;;;7.20;4.75;;;18.40;99.90;;;;;;5077511;28;20025;-74
2023/05/15 10:02:13;;;;;;;10.40;5.07;;;18.40;99.90;;;;;;5077488;28;20052;-74
2023/05/15 10:04:38;;;;;;;8.63;5.22;;;18.30;99.90;;;;;;5077502;28;20025;-74
2023/05/15 10:07:07;;;;;;;10.73;5.72;;;18.20;99.90;;;;;;5077268;28;20028;-74
2023/05/15 10:09:32;;;;;;;10.90;6.70;;;18.20;99.90;;;;;;5077152;28;20024;-73
2023/05/15 10:11:58;;;;;;;11.50;5.18;;;18.10;99.90;;;;;;5077108;28;20074;-74
2023/05/15 10:14:25;;;;;;;6.22;2.83;;;18.00;99.90;;;;;;5077242;28;20136;-73
2023/05/15 10:16:53;;;;;;;5.72;2.38;;;17.80;99.90;;;;;;5077365;28;20028;-74
2023/05/15 10:19:22;;;;;;;7.55;2.30;;;17.50;99.90;;;;;;5077138;28;20062;-74
2023/05/15 10:21:49;;;;;;;3.10;2.53;;;17.40;99.90;;;;;;5092892;28;20028;-73
2023/05/15 10:24:18;;;;;;;2.88;2.58;;;17.30;99.90;;;;;;5097969;28;20026;-73
2023/05/15 10:26:43;;;;;;;2.60;2.08;;;17.10;99.90;;;;;;5097860;28;20055;-74
2023/05/15 10:29:11;;;;;;;4.07;2.15;;;16.90;99.90;;;;;;5097754;28;20024;-74
2023/05/15 10:31:38;;;;;;;3.05;2.03;;;16.70;99.90;;;;;;5097868;28;20048;-74
2023/05/15 10:34:05;;;;;;;3.63;2.45;;;16.60;99.90;;;;;;5097558;28;20028;-74
2023/05/15 10:36:32;;;;;;;4.35;3.13;;;16.40;99.90;;;;;;5098467;28;20066;-74
2023/05/15 10:39:00;;;;;;;3.92;3.33;;;16.40;99.90;;;;;;5097667;28;20020;-74
2023/05/15 10:41:28;;;;;;;4.07;3.15;;;16.40;99.90;;;;;;5097572;28;20020;-74
2023/05/15 10:43:56;;;;;;;4.68;3.30;;;16.30;99.90;;;;;;5097726;28;20028;-74
2023/05/15 10:46:22;;;;;;;5.47;3.40;;;16.40;99.90;;;;;;5097403;28;20028;-74
2023/05/15 10:48:49;;;;;;;6.72;3.53;;;16.40;99.90;;;;;;5097529;28;20073;-72
2023/05/15 10:51:16;;;;;;;6.00;3.22;;;16.60;99.90;;;;;;5097168;28;20028;-72
2023/05/15 10:53:43;;;;;;;3.70;3.08;;;16.60;99.90;;;;;;5097516;28;20024;-71
2023/05/15 10:56:15;;;;;;;4.88;2.97;;;16.70;99.90;;;;;;5097409;28;20214;-72
2023/05/15 10:58:48;;;;;;;4.78;2.50;;;16.80;99.90;;;;;;5097494;28;20073;-72
2023/05/15 11:01:27;;;;;;;3.13;2.83;;;16.90;99.90;;;;;;5098035;28;20041;-71
2023/05/15 11:04:17;;;;;;;4.22;2.63;;;16.80;99.90;;;;;;5097440;28;20024;-72
2023/05/15 11:06:45;;;;;;;3.20;2.28;;;16.80;99.90;;;;;;5097142;28;20031;-72
2023/05/15 11:09:25;;;;;;;4.70;2.38;;;16.80;99.90;;;;;;5097076;28;20034;-71
2023/05/15 11:11:51;;;;;;;4.55;2.72;;;16.80;99.90;;;;;;5096984;28;20034;-72
2023/05/15 11:14:17;;;;;;;3.55;2.40;;;16.90;99.90;;;;;;5097741;28;20091;-72
2023/05/15 11:16:52;;;;;;;2.55;1.80;;;17.00;99.90;;;;;;5097150;28;20028;-72
2023/05/15 11:19:31;;;;;;;2.55;2.03;;;17.00;99.90;;;;;;5096919;28;20027;-72
2023/05/15 11:22:01;;;;;;;3.00;2.63;;;17.00;99.90;;;;;;5096747;28;20058;-71
2023/05/15 11:24:32;;;;;;;3.03;2.72;;;17.10;99.90;;;;;;5097785;28;20024;-72
2023/05/15 11:27:02;;;;;;;3.63;2.80;;;17.10;99.90;;;;;;5097868;28;20028;-72
2023/05/15 11:29:28;;;;;;;6.97;2.92;;;17.10;99.90;;;;;;5096625;28;20028;-72
2023/05/15 11:31:54;;;;;;;3.28;2.80;;;17.10;99.90;;;;;;5097489;28;20028;-72
2023/05/15 11:34:33;;;;;;;3.28;2.85;;;17.10;99.90;;;;;;5097516;28;20032;-72
2023/05/15 11:37:03;;;;;;;3.60;2.25;;;17.10;99.90;;;;;;5096709;28;20020;-72
2023/05/15 11:39:28;;;;;;;6.88;3.33;;;17.00;99.90;;;;;;5096586;28;20027;-72
2023/05/15 11:41:54;;;;;;;6.88;3.30;;;17.20;99.90;;;;;;5096287;28;20024;-72
2023/05/15 11:44:21;;;;;;;5.15;3.83;;;17.50;99.90;;;;;;5096760;28;20032;-72
2023/05/15 11:46:49;;;;;;;3.53;3.00;;;17.60;99.90;;;;;;5097548;28;20047;-72
2023/05/15 11:49:16;;;;;;;4.22;2.95;;;17.80;99.90;;;;;;5097663;28;20020;-72
2023/05/15 11:51:42;;;;;;;7.20;3.60;;;17.70;99.90;;;;;;5096231;28;20027;-72
2023/05/15 11:54:13;;;;;;;6.97;4.90;;;17.60;99.90;;;;;;5096514;28;20027;-72
2023/05/15 11:56:45;;;;;;;7.05;4.75;;;17.60;99.90;;;;;;5097264;28;20100;-72
2023/05/15 11:59:15;;;;;;;7.80;5.28;;;18.20;99.90;;;;;;5096309;28;20039;-72
2023/05/15 12:01:42;;;;;;;9.85;4.95;;;18.80;99.90;;;;;;5096398;28;20114;-72
2023/05/15 12:04:13;;;;;;;8.10;5.50;;;19.50;99.90;;;;;;5096506;28;20024;-72
2023/05/15 12:06:39;;;;;;;9.65;6.35;;;20.30;99.90;;;;;;5096384;28;20026;-72
2023/05/15 12:09:05;;;;;;;11.25;6.38;;;20.70;99.90;;;;;;5097275;28;20028;-72
2023/05/15 12:11:31;;;;;;;12.65;7.05;;;20.60;99.90;;;;;;5097341;28;20031;-72
2023/05/15 12:13:56;;;;;;;10.80;6.95;;;20.50;99.90;;;;;;5143048;22;20039;-79
2023/05/15 12:16:26;;;;;;;9.73;6.13;;;20.40;99.90;;;;;;5137877;28;20042;-78
2023/05/15 12:18:51;;;;;;;6.43;4.10;;;20.10;99.90;;;;;;5138091;27;20011;-78
2023/05/15 12:21:17;;;;;;;6.43;4.50;;;19.90;99.90;;;;;;5138000;27;20083;-78
2023/05/15 12:23:51;;;;;;;6.50;4.57;;;19.60;99.90;;;;;;5126384;28;20036;-78
2023/05/15 12:26:17;;;;;;;6.20;4.35;;;19.40;99.90;;;;;;5116497;28;20050;-78
2023/05/15 12:28:44;;;;;;;4.85;3.13;;;19.10;99.90;;;;;;5116709;28;20034;-78
2023/05/15 12:31:10;;;;;;;3.88;3.45;;;18.90;99.90;;;;;;5116457;28;20023;-78
2023/05/15 12:33:37;;;;;;;4.70;2.90;;;18.70;99.90;;;;;;5116291;28;20024;-78
2023/05/15 12:36:03;;;;;;;3.00;2.08;;;18.80;99.90;;;;;;5116724;28;20019;-78
2023/05/15 12:38:29;;;;;;;2.35;2.15;;;19.00;99.90;;;;;;5116450;28;20020;-78
2023/05/15 12:40:55;;;;;;;4.65;2.30;;;19.10;99.90;;;;;;5116403;28;20028;-78
2023/05/15 12:43:25;;;;;;;6.00;3.05;;;19.20;99.90;;;;;;5117799;28;20073;-78
2023/05/15 12:45:52;;;;;;;4.93;2.95;;;18.90;99.90;;;;;;5117260;28;20020;-78